Time;durP1;ratioP1;P1;durP2;ratioP2;P2;SDS_P1;SDS_P2;PMS_P1;PMS_P2;Temp;Humidity;BMP_temperature;BMP_pressure;BME280_temperature;BME280_humidity;BME280_pressure;Samples;Min_cycle;Max_cycle;Signal;HPM_P1;HPM_P2
2022/05/03 00:00:41;;;;;;;2.05;0.90;;;;;;;20.54;47.59;100365.31;5043717;28;20060;-52
2022/05/03 00:03:19;;;;;;;2.17;0.75;;;;;;;20.52;47.61;100362.88;5067326;28;20070;-57
2022/05/03 00:06:02;;;;;;;0.93;0.60;;;;;;;20.53;47.80;100363.69;5046297;28;20036;-53
2022/05/03 00:08:44;;;;;;;2.65;0.93;;;;;;;20.50;47.61;100362.25;5067300;28;20032;-55
2022/05/03 00:11:33;;;;;;;2.00;0.95;;;;;;;20.53;47.51;100358.38;5065874;28;20029;-54
2022/05/03 00:14:25;;;;;;;1.45;0.68;;;;;;;20.50;47.44;100366.75;5045969;28;20186;-51
2022/05/03 00:16:53;;;;;;;2.85;0.90;;;;;;;20.51;47.50;100361.25;5064668;28;20433;-52
2022/05/03 00:19:18;;;;;;;1.50;0.73;;;;;;;20.51;47.60;100363.88;5066815;28;20393;-53
2022/05/03 00:21:45;;;;;;;2.55;0.90;;;;;;;20.52;47.67;100362.88;5066973;28;20029;-53
2022/05/03 00:24:11;;;;;;;1.35;0.80;;;;;;;20.52;47.68;100362.06;5050477;28;20429;-53
2022/05/03 00:26:37;;;;;;;1.30;0.77;;;;;;;20.51;47.71;100355.94;5067792;28;20028;-54
2022/05/03 00:29:03;;;;;;;1.30;0.60;;;;;;;20.51;47.51;100363.06;5066253;28;20105;-59
2022/05/03 00:31:30;;;;;;;1.33;0.70;;;;;;;20.51;47.71;100360.44;5065975;28;20059;-55
2022/05/03 00:33:57;;;;;;;1.60;0.60;;;;;;;20.51;47.40;100363.06;5067991;28;20044;-52
2022/05/03 00:36:23;;;;;;;1.23;0.65;;;;;;;20.51;47.73;100357.78;5042883;28;20044;-56
2022/05/03 00:38:50;;;;;;;1.27;0.70;;;;;;;20.50;47.53;100359.63;5065593;28;20569;-56
2022/05/03 00:41:43;;;;;;;2.53;0.55;;;;;;;20.48;47.56;100356.38;5065683;28;20025;-54
2022/05/03 00:47:16;;;;;;;1.40;0.70;;;;;;;20.50;47.53;100348.22;5057059;28;20039;-57
2022/05/03 00:50:07;;;;;;;3.97;1.13;;;;;;;20.49;47.54;100346.59;5067078;28;20036;-50
2022/05/03 00:52:47;;;;;;;1.38;0.60;;;;;;;20.50;47.66;100345.56;5066492;28;20754;-49
2022/05/03 00:55:22;;;;;;;0.93;0.55;;;;;;;20.50;47.91;100342.94;5061882;28;20036;-48
2022/05/03 00:58:18;;;;;;;1.73;0.70;;;;;;;20.51;48.14;100344.56;5068682;28;20067;-57
2022/05/03 01:01:07;;;;;;;;;;;;;;;20.45;47.97;100345.41;5063639;28;20035;-52
2022/05/03 01:04:07;;;;;;;1.35;0.70;;;;;;;20.47;48.02;100349.44;5033458;28;20006;-54
2022/05/03 01:06:38;;;;;;;1.83;0.50;;;;;;;20.49;47.87;100339.47;5036745;28;20048;-54
2022/05/03 01:09:09;;;;;;;1.35;0.60;;;;;;;20.52;47.85;100344.34;5064586;28;20115;-49
2022/05/03 01:12:07;;;;;;;1.63;0.77;;;;;;;20.51;47.98;100339.25;5047870;28;20044;-56
2022/05/03 01:15:06;;;;;;;1.58;0.70;;;;;;;20.49;47.90;100342.13;5068102;28;20517;-60
2022/05/03 01:18:06;;;;;;;2.55;0.82;;;;;;;20.48;47.63;100335.19;5048095;28;20041;-52
2022/05/03 01:20:43;;;;;;;1.70;0.60;;;;;;;20.48;47.60;100348.44;5065992;28;20025;-55
2022/05/03 01:23:41;;;;;;;1.75;0.65;;;;;;;20.46;47.85;100341.72;5045823;28;20033;-54
2022/05/03 01:26:08;;;;;;;1.48;0.80;;;;;;;20.49;47.66;100336.00;4965328;28;20086;-58
2022/05/03 01:29:11;;;;;;;1.45;0.70;;;;;;;20.47;47.77;100343.34;4966082;28;20070;-58
2022/05/03 01:31:39;;;;;;;2.35;0.70;;;;;;;20.48;47.84;100339.69;4956746;28;20046;-57
2022/05/03 01:34:06;;;;;;;2.38;0.55;;;;;;;20.49;47.60;100342.13;4965818;28;20046;-50
2022/05/03 01:36:43;;;;;;;1.05;0.60;;;;;;;20.48;47.85;100344.97;4964521;28;20169;-52
2022/05/03 01:39:23;;;;;;;1.90;0.65;;;;;;;20.46;47.50;100347.81;4967404;28;20113;-49
2022/05/03 01:41:54;;;;;;;1.83;0.70;;;;;;;20.48;47.88;100342.31;4963965;28;20034;-58
2022/05/03 01:44:37;;;;;;;2.13;1.02;;;;;;;20.47;47.57;100344.16;4952016;28;20198;-59
2022/05/03 01:47:30;;;;;;;1.27;0.50;;;;;;;20.44;47.80;100339.28;4959057;28;20132;-58
2022/05/03 01:50:27;;;;;;;1.17;0.57;;;;;;;20.43;47.75;100342.97;4960399;28;20050;-56
2022/05/03 01:53:15;;;;;;;1.27;0.55;;;;;;;20.44;47.72;100338.47;4958728;28;20104;-59
2022/05/03 01:56:18;;;;;;;1.45;0.85;;;;;;;20.43;48.11;100342.16;4967420;28;20133;-57
2022/05/03 01:59:04;;;;;;;3.50;0.80;;;;;;;20.42;47.50;100348.47;4960607;28;20041;-52
2022/05/03 02:01:55;;;;;;;1.83;0.57;;;;;;;20.44;47.70;100338.47;4963379;28;20046;-54
2022/05/03 02:04:58;;;;;;;2.38;0.77;;;;;;;20.42;47.64;100340.53;5059650;28;20086;-50
2022/05/03 02:07:35;;;;;;;1.85;0.77;;;;;;;20.42;47.89;100338.69;5065770;28;20151;-51
2022/05/03 02:12:34;;;;;;;1.60;0.60;;;;;;;20.45;47.51;100343.56;5361618;22;20414;-53
2022/05/03 02:15:12;;;;;;;0.93;0.50;;;;;;;20.45;47.83;100340.91;5043546;28;20032;-55
2022/05/03 02:18:03;;;;;;;2.63;0.68;;;;;;;20.43;47.87;100345.59;5044426;28;20152;-57
2022/05/03 02:20:59;;;;;;;1.40;0.60;;;;;;;20.43;47.79;100339.50;5019352;28;20060;-55
2022/05/03 02:23:24;;;;;;;1.42;0.50;;;;;;;20.44;47.57;100335.84;5044089;28;20040;-59
2022/05/03 02:26:20;;;;;;;1.02;0.50;;;;;;;20.41;47.68;100342.34;5037724;28;20329;-51
2022/05/03 02:28:57;;;;;;;;;;;;;;;20.33;47.87;100339.09;5046315;28;20104;-59
2022/05/03 02:31:36;;;;;;;1.05;0.40;;;;;;;20.36;47.90;100341.34;5042121;28;20278;-52
2022/05/03 02:34:40;;;;;;;1.60;0.80;;;;;;;20.39;47.99;100340.94;5043410;28;20567;-58
2022/05/03 02:37:17;;;;;;;0.60;0.40;;;;;;;20.40;47.59;100337.28;5014511;28;20041;-54
2022/05/03 02:40:08;;;;;;;1.52;0.50;;;;;;;20.41;48.00;100338.91;5024808;28;20041;-59
2022/05/03 02:42:35;;;;;;;0.93;0.50;;;;;;;20.43;47.66;100336.84;5035635;28;20087;-55
2022/05/03 02:45:02;;;;;;;1.20;0.70;;;;;;;20.46;47.75;100339.09;5040397;28;20035;-47
2022/05/03 02:47:29;;;;;;;0.77;0.60;;;;;;;20.45;47.79;100338.25;5042544;28;20040;-55
2022/05/03 02:50:14;;;;;;;1.02;0.40;;;;;;;20.47;47.55;100338.06;5030023;28;20352;-53
2022/05/03 02:52:58;;;;;;;0.80;0.60;;;;;;;20.46;47.62;100336.44;5041394;28;20086;-52
2022/05/03 02:55:52;;;;;;;1.27;0.50;;;;;;;20.43;47.56;100337.66;5026142;28;20045;-59
2022/05/03 02:58:33;;;;;;;1.50;0.40;;;;;;;20.45;47.47;100335.63;5033152;28;20515;-57
2022/05/03 03:01:49;;;;;;;0.80;0.40;;;;;;;20.46;47.71;100334.59;5038839;28;20534;-55
2022/05/03 03:04:20;;;;;;;0.93;0.60;;;;;;;20.42;47.73;100333.41;5029264;28;20044;-56
2022/05/03 03:06:48;;;;;;;1.23;0.40;;;;;;;20.46;47.50;100326.66;5031691;28;20357;-57
2022/05/03 03:09:24;;;;;;;1.42;0.57;;;;;;;20.46;47.44;100333.78;5039582;28;20319;-60
2022/05/03 03:11:58;;;;;;;0.73;0.52;;;;;;;20.47;47.61;100332.75;5047632;28;20045;-56
2022/05/03 03:14:32;;;;;;;2.33;0.70;;;;;;;20.46;47.47;100336.44;5067000;28;20036;-56
2022/05/03 03:17:09;;;;;;;1.92;0.98;;;;;;;20.43;47.66;100337.66;5047494;28;20038;-58
2022/05/03 03:20:02;;;;;;;1.98;0.60;;;;;;;20.44;47.44;100334.00;5050678;28;20129;-58
2022/05/03 03:22:36;;;;;;;1.08;0.68;;;;;;;20.43;47.38;100331.56;5048319;28;20029;-60
2022/05/03 03:25:03;;;;;;;1.63;0.50;;;;;;;20.45;47.63;100329.53;5042968;28;20032;-55
2022/05/03 03:27:33;;;;;;;1.33;0.65;;;;;;;20.45;47.77;100335.63;5043062;28;20036;-52
2022/05/03 03:30:01;;;;;;;0.73;0.40;;;;;;;20.45;47.27;100334.81;5043245;28;20082;-59
2022/05/03 03:32:27;;;;;;;1.00;0.45;;;;;;;20.45;47.55;100335.63;5033169;28;20112;-52
2022/05/03 03:34:57;;;;;;;1.00;0.40;;;;;;;20.44;47.67;100336.66;5045640;28;20102;-50
2022/05/03 03:37:25;;;;;;;0.93;0.50;;;;;;;20.47;48.64;100343.34;5045757;28;20495;-52
2022/05/03 03:39:51;;;;;;;3.13;0.57;;;;;;;20.50;48.88;100333.16;5053033;28;20033;-52
2022/05/03 03:42:17;;;;;;;1.38;0.70;;;;;;;20.56;49.59;100342.09;5062521;28;20032;-56
2022/05/03 03:44:42;;;;;;;1.50;1.15;;;;;;;20.59;50.40;100344.31;5048319;28;20040;-50
2022/05/03 03:47:09;;;;;;;1.38;0.70;;;;;;;20.58;50.01;100342.69;5051082;28;20029;-53
2022/05/03 03:49:35;;;;;;;10.98;0.82;;;;;;;20.56;50.20;100342.09;5067747;28;20552;-53
2022/05/03 03:52:01;;;;;;;3.00;0.60;;;;;;;20.55;49.97;100345.75;5045591;28;20427;-54
2022/05/03 03:54:28;;;;;;;1.77;0.70;;;;;;;20.56;49.96;100343.91;5046788;28;20666;-52
2022/05/03 03:56:55;;;;;;;2.45;0.60;;;;;;;20.56;49.98;100352.66;5042999;28;20453;-53
2022/05/03 03:59:22;;;;;;;3.67;0.60;;;;;;;20.55;49.81;100356.34;5034390;28;20052;-60
2022/05/03 04:01:50;;;;;;;2.13;0.77;;;;;;;20.55;49.90;100356.34;5033004;28;20021;-52
2022/05/03 04:04:26;;;;;;;2.15;0.40;;;;;;;20.54;49.97;100358.19;5048643;28;20118;-56
2022/05/03 04:06:52;;;;;;;5.30;0.82;;;;;;;20.54;49.93;100352.06;5027966;28;20468;-56
2022/05/03 04:09:17;;;;;;;3.53;0.43;;;;;;;20.53;49.77;100355.75;5041914;28;20041;-57
2022/05/03 04:11:47;;;;;;;3.55;0.73;;;;;;;20.52;49.44;100348.81;5047921;28;20049;-59
2022/05/03 04:14:13;;;;;;;1.58;0.55;;;;;;;20.53;49.30;100356.56;5049020;28;20132;-59
2022/05/03 04:16:40;;;;;;;1.65;0.50;;;;;;;20.53;49.08;100355.75;5026418;28;20665;-55
2022/05/03 04:19:05;;;;;;;1.77;0.47;;;;;;;20.53;49.42;100366.31;5049002;28;20120;-59
2022/05/03 04:21:31;;;;;;;7.28;1.58;;;;;;;20.54;50.43;100362.66;5048153;28;20147;-47
2022/05/03 04:23:56;;;;;;;4.03;1.00;;;;;;;20.55;50.66;100361.63;5048136;28;20036;-52
2022/05/03 04:26:22;;;;;;;3.63;0.60;;;;;;;20.54;51.13;100360.00;5048924;28;20060;-54
2022/05/03 04:28:47;;;;;;;2.20;0.60;;;;;;;20.54;50.71;100354.72;5047746;28;20037;-58
2022/05/03 04:31:13;;;;;;;1.92;0.40;;;;;;;20.52;49.98;100357.56;5048324;28;20119;-58
2022/05/03 04:33:38;;;;;;;4.30;0.50;;;;;;;20.52;49.94;100362.06;5044475;28;20150;-55
2022/05/03 04:36:04;;;;;;;5.97;0.80;;;;;;;20.51;49.52;100371.00;5041944;28;20040;-56
2022/05/03 04:38:30;;;;;;;1.70;0.65;;;;;;;20.52;49.75;100370.81;5047548;28;20029;-59
2022/05/03 04:40:59;;;;;;;2.47;0.70;;;;;;;20.58;50.69;100376.28;5044463;28;20027;-54
2022/05/03 04:43:25;;;;;;;4.53;0.93;;;;;;;20.65;51.22;100372.56;5043245;28;20103;-53
2022/05/03 04:45:51;;;;;;;12.98;1.48;;;;;;;20.72;51.17;100372.53;5043091;28;20484;-54
2022/05/03 04:48:16;;;;;;;5.10;0.80;;;;;;;20.71;51.48;100371.72;5045214;28;20198;-49
2022/05/03 04:50:42;;;;;;;8.30;1.10;;;;;;;20.70;51.35;100375.41;5047961;28;20036;-48
2022/05/03 04:53:07;;;;;;;4.50;0.68;;;;;;;20.68;51.29;100382.75;5046040;28;20029;-48
2022/05/03 04:55:38;;;;;;;7.78;0.57;;;;;;;20.66;50.99;100382.13;5044238;28;20139;-50
2022/05/03 04:58:04;;;;;;;3.22;0.40;;;;;;;20.65;50.99;100377.88;5046508;28;20033;-49
2022/05/03 05:00:29;;;;;;;8.50;0.70;;;;;;;20.65;50.53;100382.34;5046068;28;20025;-52
2022/05/03 05:02:55;;;;;;;3.17;0.70;;;;;;;20.62;50.83;100378.28;5043131;28;20361;-51
2022/05/03 05:05:20;;;;;;;2.10;0.80;;;;;;;20.62;50.77;100373.00;5047917;28;20044;-52
2022/05/03 05:07:46;;;;;;;2.45;0.50;;;;;;;20.62;50.90;100378.28;5026863;28;20143;-50
2022/05/03 05:10:23;;;;;;;6.45;0.70;;;;;;;20.61;50.80;100381.16;5044070;28;20078;-45
2022/05/03 05:12:51;;;;;;;4.10;0.68;;;;;;;20.61;50.50;100381.97;5044894;28;20095;-52
2022/05/03 05:15:17;;;;;;;1.27;0.40;;;;;;;20.60;49.99;100375.03;5046952;28;20040;-53
2022/05/03 05:17:42;;;;;;;2.78;0.50;;;;;;;20.61;49.88;100378.50;5034128;28;20021;-48
2022/05/03 05:20:08;;;;;;;11.27;1.42;;;;;;;20.60;50.13;100374.22;5040902;28;20475;-48
2022/05/03 05:22:33;;;;;;;20.35;1.00;;;;;;;20.60;50.04;100384.81;5032481;28;20453;-52
2022/05/03 05:24:59;;;;;;;12.10;0.88;;;;;;;20.60;49.87;100380.34;5039927;28;20096;-52
2022/05/03 05:27:24;;;;;;;4.47;0.55;;;;;;;20.60;49.83;100385.63;5047376;28;20033;-52
2022/05/03 05:29:50;;;;;;;6.07;0.57;;;;;;;20.59;49.72;100384.00;5044165;28;20071;-46
2022/05/03 05:32:15;;;;;;;2.67;0.40;;;;;;;20.58;49.65;100382.38;5047764;28;20057;-51
2022/05/03 05:34:41;;;;;;;3.95;0.50;;;;;;;20.59;49.47;100391.94;5048787;28;20048;-55
2022/05/03 05:37:06;;;;;;;2.83;0.60;;;;;;;20.59;49.47;100393.78;5040173;28;20370;-54
2022/05/03 05:39:32;;;;;;;4.00;0.80;;;;;;;20.58;49.48;100398.25;5048620;28;20025;-55
2022/05/03 05:41:59;;;;;;;8.05;1.13;;;;;;;20.58;49.18;100398.25;5036250;28;20144;-52
2022/05/03 05:44:31;;;;;;;2.85;0.57;;;;;;;20.56;49.43;100395.00;5043828;28;20055;-53
2022/05/03 05:46:56;;;;;;;2.30;0.60;;;;;;;20.57;49.47;100394.00;5034922;28;20032;-49
2022/05/03 05:49:22;;;;;;;3.33;0.57;;;;;;;20.57;49.12;100399.28;5035099;28;20025;-50
2022/05/03 05:51:47;;;;;;;1.52;0.50;;;;;;;20.57;49.38;100401.94;5044616;28;20384;-47
2022/05/03 05:54:16;;;;;;;4.50;0.77;;;;;;;20.57;49.12;100415.16;5035583;28;20060;-50
2022/05/03 05:56:42;;;;;;;1.63;0.57;;;;;;;20.57;49.39;100406.41;5037066;28;20488;-50
2022/05/03 05:59:08;;;;;;;4.93;0.52;;;;;;;20.55;49.72;100411.91;5042068;28;20042;-49
2022/05/03 06:01:38;;;;;;;3.63;0.80;;;;;;;20.55;49.38;100403.97;5037685;28;20037;-54
2022/05/03 06:04:05;;;;;;;1.70;0.50;;;;;;;20.55;49.83;100417.22;5045286;28;20124;-52
2022/05/03 06:06:32;;;;;;;1.73;0.43;;;;;;;20.54;49.71;100416.41;5042409;28;20388;-48
2022/05/03 06:09:02;;;;;;;4.60;0.57;;;;;;;20.55;50.74;100425.16;5027381;28;20041;-51
2022/05/03 06:11:29;;;;;;;4.22;0.57;;;;;;;20.57;51.17;100417.81;5037827;28;20037;-58
2022/05/03 06:13:54;;;;;;;3.60;0.77;;;;;;;20.59;52.22;100423.72;5024523;28;20234;-57
2022/05/03 06:16:20;;;;;;;4.05;0.73;;;;;;;20.58;52.09;100419.44;5042344;28;20104;-52
2022/05/03 06:18:46;;;;;;;5.18;0.50;;;;;;;20.58;51.39;100423.91;5042028;28;20370;-60
2022/05/03 06:21:12;;;;;;;3.40;0.50;;;;;;;20.59;50.90;100420.25;5041369;28;20407;-51
2022/05/03 06:23:38;;;;;;;4.95;0.60;;;;;;;20.59;50.26;100428.19;5032344;28;20052;-58
2022/05/03 06:26:07;;;;;;;3.78;0.57;;;;;;;20.58;50.43;100423.91;5029177;28;20051;-51
2022/05/03 06:28:32;;;;;;;2.22;0.40;;;;;;;20.58;50.13;100413.34;5033770;28;20043;-47
2022/05/03 06:30:58;;;;;;;5.68;0.70;;;;;;;20.58;50.11;100423.91;5038894;28;20025;-55
2022/05/03 06:33:24;;;;;;;4.20;0.60;;;;;;;20.58;50.17;100430.03;5043421;28;20053;-55
2022/05/03 06:35:49;;;;;;;4.65;0.88;;;;;;;20.59;50.00;100425.53;5041452;28;20480;-49
2022/05/03 06:38:14;;;;;;;5.97;0.50;;;;;;;20.59;49.93;100428.19;5043341;28;20033;-48
2022/05/03 06:40:41;;;;;;;2.03;0.50;;;;;;;20.60;49.85;100422.69;5039499;28;20028;-54
2022/05/03 06:43:06;;;;;;;6.80;0.50;;;;;;;20.60;49.84;100422.69;5035784;28;20030;-52
2022/05/03 06:45:32;;;;;;;3.35;0.65;;;;;;;20.61;49.71;100419.03;5044437;28;20035;-51
2022/05/03 06:47:59;;;;;;;2.33;0.50;;;;;;;20.62;49.60;100419.81;5041540;28;20075;-51
2022/05/03 06:50:25;;;;;;;3.45;0.60;;;;;;;20.62;49.84;100431.22;5041114;28;20532;-53
2022/05/03 06:52:50;;;;;;;2.90;0.60;;;;;;;20.63;49.90;100422.28;5039700;28;20108;-54
2022/05/03 06:55:16;;;;;;;1.85;0.50;;;;;;;20.63;49.66;100432.84;5042550;28;20203;-51
2022/05/03 06:57:41;;;;;;;2.67;0.60;;;;;;;20.63;49.75;100429.41;5041654;28;20108;-52
2022/05/03 07:00:08;;;;;;;3.55;0.60;;;;;;;20.64;49.49;100428.38;5039918;28;20025;-55
2022/05/03 07:02:34;;;;;;;3.10;0.50;;;;;;;20.64;49.38;100426.53;5025903;28;20033;-54
2022/05/03 07:05:01;;;;;;;2.80;0.50;;;;;;;20.64;49.43;100434.47;5036283;28;20033;-51
2022/05/03 07:07:27;;;;;;;2.22;0.60;;;;;;;20.63;49.50;100430.22;5029549;28;20112;-53
2022/05/03 07:09:53;;;;;;;1.35;0.45;;;;;;;20.63;49.46;100426.75;5039738;28;20130;-53
2022/05/03 07:12:18;;;;;;;2.05;0.40;;;;;;;20.61;49.93;100424.31;5038244;28;20064;-46
2022/05/03 07:14:44;;;;;;;2.55;0.60;;;;;;;20.61;49.75;100429.59;5036592;28;20037;-49
2022/05/03 07:22:45;;;;;;;2.58;0.57;;;;;;;20.60;49.51;100430.63;5046855;28;20033;-48
2022/05/03 07:22:48;;;;;;;1.00;0.50;;;;;;;20.60;48.92;100427.97;5047539;28;20082;-47
2022/05/03 07:25:17;;;;;;;3.28;0.60;;;;;;;20.60;49.01;100427.16;5046821;28;20489;-50
2022/05/03 07:27:46;;;;;;;2.50;0.50;;;;;;;20.59;49.02;100428.19;5047833;28;20021;-49
2022/05/03 07:30:15;;;;;;;2.00;0.70;;;;;;;20.60;48.77;100427.16;5046717;28;20037;-51
2022/05/03 07:32:41;;;;;;;4.78;0.50;;;;;;;20.60;48.72;100427.97;5047212;28;20465;-46
2022/05/03 07:35:08;;;;;;;1.48;0.65;;;;;;;20.62;48.73;100423.28;5047108;28;20400;-51
2022/05/03 07:37:33;;;;;;;2.22;0.70;;;;;;;20.61;48.58;100424.31;5047428;28;20519;-48
2022/05/03 07:39:58;;;;;;;1.58;0.40;;;;;;;20.61;48.89;100424.31;5045853;28;20029;-49
2022/05/03 07:42:24;;;;;;;1.52;0.47;;;;;;;20.61;48.55;100421.66;5049173;28;20109;-47
2022/05/03 07:44:49;;;;;;;1.33;0.50;;;;;;;20.60;48.37;100427.97;5047766;28;20194;-52
2022/05/03 07:47:15;;;;;;;2.22;0.80;;;;;;;20.61;48.48;100420.84;5047214;28;20033;-49
2022/05/03 07:49:40;;;;;;;1.77;0.40;;;;;;;20.59;48.18;100423.72;5047170;28;20148;-48
2022/05/03 07:52:06;;;;;;;1.52;0.50;;;;;;;20.59;48.26;100430.84;5047344;28;20025;-50
2022/05/03 07:54:32;;;;;;;1.10;0.32;;;;;;;20.58;47.91;100423.91;5045938;28;20032;-49
2022/05/03 07:56:58;;;;;;;1.27;0.40;;;;;;;20.57;48.18;100431.03;5048000;28;20029;-50
2022/05/03 07:59:25;;;;;;;1.42;0.40;;;;;;;20.57;48.31;100428.41;5045876;28;20037;-48
2022/05/03 08:01:54;;;;;;;0.52;0.38;;;;;;;20.56;48.17;100437.38;5044188;28;20032;-55
2022/05/03 08:04:20;;;;;;;2.55;0.50;;;;;;;20.57;48.06;100435.53;5038220;28;20183;-54
2022/05/03 08:06:46;;;;;;;1.50;0.50;;;;;;;20.56;48.05;100434.72;5043435;28;20104;-51
2022/05/03 08:09:11;;;;;;;0.90;0.40;;;;;;;20.56;47.67;100436.56;5043649;28;20309;-50
2022/05/03 08:11:36;;;;;;;1.23;0.47;;;;;;;20.56;47.73;100439.19;5045488;28;20049;-49
2022/05/03 08:14:02;;;;;;;4.55;0.50;;;;;;;20.55;47.73;100435.75;5046113;28;20058;-48
2022/05/03 08:16:30;;;;;;;1.85;0.40;;;;;;;20.56;47.70;100437.38;5045259;28;20183;-48
2022/05/03 08:18:56;;;;;;;1.33;0.30;;;;;;;20.58;48.00;100439.81;5045585;28;20094;-47
2022/05/03 08:21:22;;;;;;;1.00;0.30;;;;;;;20.59;48.04;100438.78;5046407;28;20738;-50
2022/05/03 08:23:47;;;;;;;1.70;0.57;;;;;;;20.61;47.52;100444.69;5046607;28;20154;-47
2022/05/03 08:26:13;;;;;;;2.25;0.47;;;;;;;20.61;47.63;100448.13;5047233;28;20040;-50
2022/05/03 08:28:41;;;;;;;2.35;0.40;;;;;;;20.62;47.85;100441.00;5046192;28;20250;-49
2022/05/03 08:31:07;;;;;;;1.00;0.40;;;;;;;20.61;47.10;100440.19;5046278;28;20037;-46
2022/05/03 08:33:33;;;;;;;0.80;0.38;;;;;;;20.62;47.36;100441.00;5044926;28;20025;-47
2022/05/03 08:35:59;;;;;;;2.20;0.45;;;;;;;20.61;47.05;100440.19;5045296;28;20075;-48
2022/05/03 08:43:54;;;;;;;2.05;0.40;;;;;;;20.61;45.53;100445.50;5046128;28;20040;-45
2022/05/03 08:46:21;;;;;;;3.00;0.30;;;;;;;20.61;45.09;100442.84;5044910;28;20029;-45
2022/05/03 08:48:52;;;;;;;2.38;0.43;;;;;;;20.61;44.32;100439.38;5044222;28;20032;-46
2022/05/03 08:51:21;;;;;;;2.30;0.40;;;;;;;20.62;44.33;100438.34;5027858;28;20276;-46
2022/05/03 08:53:47;;;;;;;1.10;0.30;;;;;;;20.62;44.26;100441.00;5045951;28;20064;-45
2022/05/03 08:56:17;;;;;;;1.48;0.40;;;;;;;20.60;43.34;100435.09;5045893;28;20040;-56
2022/05/03 08:58:43;;;;;;;1.90;0.30;;;;;;;20.60;43.17;100441.22;5045582;28;20029;-52
2022/05/03 09:01:10;;;;;;;1.75;0.32;;;;;;;20.62;43.13;100447.13;5044390;28;20033;-54
2022/05/03 09:03:37;;;;;;;4.07;0.77;;;;;;;20.65;43.19;100441.41;5044398;28;20433;-56
2022/05/03 09:06:03;;;;;;;1.50;0.40;;;;;;;20.65;42.85;100445.88;5044229;28;20039;-54
2022/05/03 09:08:31;;;;;;;2.55;0.52;;;;;;;20.64;42.85;100436.31;5046308;28;20330;-53
2022/05/03 09:10:57;;;;;;;4.03;0.57;;;;;;;20.63;42.64;100443.44;5047038;28;20024;-52
2022/05/03 09:13:26;;;;;;;1.30;0.73;;;;;;;20.62;42.37;100443.66;5038956;28;20300;-56
2022/05/03 09:15:56;;;;;;;2.85;0.40;;;;;;;20.61;42.77;100437.53;5036385;28;20033;-55
2022/05/03 09:18:24;;;;;;;2.60;0.47;;;;;;;20.61;42.89;100442.84;5024855;28;20095;-56
2022/05/03 09:23:53;;;;;;;3.30;0.50;;;;;;;20.59;42.96;100444.06;5044158;28;20427;-53
2022/05/03 09:26:23;;;;;;;1.15;0.40;;;;;;;20.57;43.05;100439.00;5036487;28;20114;-54
2022/05/03 09:29:01;;;;;;;3.10;0.45;;;;;;;20.57;43.36;100433.69;5039832;28;20389;-51
2022/05/03 09:31:30;;;;;;;1.15;0.30;;;;;;;20.58;43.05;100435.31;5016090;28;20120;-54
2022/05/03 09:33:57;;;;;;;1.15;0.47;;;;;;;20.58;42.97;100435.31;5028892;28;20037;-62
2022/05/03 09:36:23;;;;;;;0.93;0.40;;;;;;;20.60;43.18;100429.81;5018607;28;20435;-50
2022/05/03 09:38:50;;;;;;;5.50;0.47;;;;;;;20.59;43.62;100429.00;5037336;28;20029;-62
2022/05/03 09:41:17;;;;;;;0.70;0.30;;;;;;;20.60;43.99;100427.97;5045378;28;20458;-65
2022/05/03 09:44:05;;;;;;;1.40;0.30;;;;;;;20.58;44.09;100423.91;5038244;28;20036;-65
2022/05/03 09:46:53;;;;;;;1.08;0.30;;;;;;;20.55;44.09;100430.44;5037487;28;20435;-62
2022/05/03 09:49:21;;;;;;;1.25;0.40;;;;;;;20.58;44.25;100431.84;5045744;28;20487;-64
2022/05/03 09:51:49;;;;;;;0.80;0.40;;;;;;;20.55;44.18;100422.50;5031775;28;20559;-62
2022/05/03 09:54:16;;;;;;;3.60;0.40;;;;;;;20.57;44.58;100425.75;5025719;28;20037;-50
2022/05/03 09:56:46;;;;;;;4.63;0.60;;;;;;;20.57;44.55;100422.28;5037973;28;20356;-52
2022/05/03 09:59:11;;;;;;;0.50;0.30;;;;;;;20.56;44.46;100424.13;5025095;28;20045;-54
2022/05/03 10:01:38;;;;;;;2.67;0.30;;;;;;;20.55;44.10;100422.50;5019314;28;20061;-56
2022/05/03 10:04:07;;;;;;;1.15;0.40;;;;;;;20.54;43.67;100418.22;5028940;28;20408;-56
2022/05/03 10:06:34;;;;;;;2.20;0.30;;;;;;;20.54;43.55;100418.22;5028089;28;20025;-53
2022/05/03 10:09:00;;;;;;;1.63;0.30;;;;;;;20.54;43.45;100418.22;5034154;28;20195;-55
2022/05/03 10:11:27;;;;;;;1.05;0.30;;;;;;;20.55;43.49;100411.91;5022081;28;20017;-54
2022/05/03 10:13:53;;;;;;;0.55;0.30;;;;;;;20.54;43.35;100408.47;5042654;28;20444;-54
2022/05/03 10:22:00;;;;;;;1.88;0.40;;;;;;;20.51;43.01;100402.78;5043200;28;20056;-55
2022/05/03 10:24:26;;;;;;;1.58;0.38;;;;;;;20.54;42.99;100405.00;5045357;28;20029;-54
2022/05/03 10:26:52;;;;;;;1.15;0.45;;;;;;;20.57;42.87;100403.75;5045793;28;20052;-55
2022/05/03 10:29:18;;;;;;;1.25;0.70;;;;;;;20.59;43.13;100399.06;5048598;28;20025;-55
2022/05/03 10:32:04;;;;;;;1.10;0.35;;;;;;;20.61;42.88;100402.31;5045974;28;20128;-55
2022/05/03 10:34:39;;;;;;;;;;;;;;;20.53;42.68;100398.09;5043685;28;20036;-54
2022/05/03 10:37:05;;;;;;;2.00;0.43;;;;;;;20.57;43.06;100401.13;5042509;28;19956;-54
2022/05/03 10:39:31;;;;;;;0.80;0.40;;;;;;;20.60;42.91;100396.22;5043978;28;20060;-53
2022/05/03 10:42:04;;;;;;;1.38;0.40;;;;;;;20.62;42.64;100399.47;5046065;28;20066;-50
2022/05/03 10:44:57;;;;;;;1.48;0.80;;;;;;;20.62;42.32;100388.88;5047705;28;20029;-51
2022/05/03 10:47:47;;;;;;;1.13;0.50;;;;;;;20.62;42.23;100388.88;5039984;28;20037;-57
2022/05/03 10:50:13;;;;;;;5.28;0.55;;;;;;;20.64;42.29;100386.03;5040410;28;20098;-57
2022/05/03 10:52:58;;;;;;;4.30;0.50;;;;;;;20.63;42.68;100387.84;5043566;28;20454;-60
2022/05/03 10:55:26;;;;;;;4.47;0.55;;;;;;;20.64;42.89;100383.38;5028131;28;20056;-51
2022/05/03 10:58:27;;;;;;;2.75;0.45;;;;;;;20.63;42.98;100384.41;5044864;28;20036;-56
2022/05/03 11:01:20;;;;;;;2.65;0.60;;;;;;;20.62;43.14;100380.94;5040032;28;20032;-51
2022/05/03 11:03:51;;;;;;;1.00;0.40;;;;;;;20.64;43.46;100378.88;5045158;28;20552;-54
2022/05/03 11:06:19;;;;;;;2.72;0.50;;;;;;;20.64;43.46;100376.25;5047149;28;20033;-61
2022/05/03 11:09:08;;;;;;;2.90;0.40;;;;;;;20.62;43.51;100373.00;5045490;28;20396;-53
2022/05/03 11:11:42;;;;;;;2.58;0.65;;;;;;;20.63;43.59;100373.81;5031518;28;20037;-60
2022/05/03 11:14:22;;;;;;;1.02;0.50;;;;;;;20.61;43.65;100371.38;5048383;28;20076;-56
2022/05/03 11:16:49;;;;;;;1.33;0.40;;;;;;;20.62;43.71;100366.88;5042676;28;20476;-48
2022/05/03 11:19:18;;;;;;;4.90;0.45;;;;;;;20.63;43.81;100364.03;5037842;28;20275;-49
2022/05/03 11:21:45;;;;;;;4.28;0.63;;;;;;;20.63;43.89;100363.22;5035932;28;20052;-56
2022/05/03 11:24:32;;;;;;;1.38;0.60;;;;;;;20.60;44.30;100353.88;5043984;28;20040;-54
2022/05/03 11:27:03;;;;;;;1.20;0.65;;;;;;;20.63;44.15;100348.16;5028442;28;20091;-57
2022/05/03 11:29:30;;;;;;;2.67;0.80;;;;;;;20.65;44.79;100340.81;5039468;28;20037;-52
2022/05/03 11:31:58;;;;;;;2.15;0.98;;;;;;;20.68;44.44;100347.50;5033489;28;20041;-54
2022/05/03 11:34:24;;;;;;;3.45;0.73;;;;;;;20.69;44.54;100342.00;5026490;28;20120;-57
2022/05/03 11:36:50;;;;;;;2.72;0.60;;;;;;;20.70;44.46;100335.69;5036311;28;20080;-56
2022/05/03 11:39:21;;;;;;;1.30;0.60;;;;;;;20.71;45.17;100339.16;5043299;28;20025;-48
2022/05/03 11:41:47;;;;;;;2.72;0.47;;;;;;;20.74;45.13;100336.06;5045496;28;20033;-51
2022/05/03 11:44:14;;;;;;;3.35;0.60;;;;;;;20.76;45.31;100332.19;5033555;28;20040;-49
2022/05/03 11:46:41;;;;;;;4.55;0.80;;;;;;;20.76;45.11;100332.19;5041024;28;20650;-46
2022/05/03 11:49:08;;;;;;;6.30;0.70;;;;;;;20.76;41.84;100326.91;5037662;28;20202;-49
2022/05/03 11:57:08;;;;;;;3.03;0.50;;;;;;;20.78;39.94;100319.56;5028961;28;20091;-51
2022/05/03 11:59:34;;;;;;;2.13;0.50;;;;;;;20.79;39.95;100318.53;5023114;28;20438;-50
2022/05/03 12:02:21;;;;;;;4.47;0.60;;;;;;;20.80;40.21;100319.31;5038001;28;20034;-50
2022/05/03 12:05:02;;;;;;;1.17;0.43;;;;;;;20.82;39.61;100315.41;5024715;28;20429;-51
2022/05/03 12:07:28;;;;;;;1.50;0.40;;;;;;;20.86;39.27;100307.84;5034593;28;20095;-52
2022/05/03 12:09:55;;;;;;;1.20;0.40;;;;;;;20.89;38.68;100304.78;5036836;28;20571;-50
2022/05/03 12:12:43;;;;;;;0.90;0.40;;;;;;;20.90;38.29;100305.59;5039836;28;20053;-53
2022/05/03 12:15:24;;;;;;;0.90;0.40;;;;;;;20.90;38.48;100306.41;5031369;28;20032;-52